createdAt,value
2023-02-14T00:01:21.043Z,98894.00
2023-02-14T00:05:21.471Z,98903.53
2023-02-14T00:09:24.954Z,98900.22
2023-02-14T00:13:25.314Z,98909.19
2023-02-14T00:17:25.662Z,98903.25
2023-02-14T00:21:26.466Z,98906.00
2023-02-14T00:25:29.427Z,98901.59
2023-02-14T00:29:35.270Z,98912.50
2023-02-14T00:33:38.292Z,98912.88
2023-02-14T00:37:39.311Z,98908.72
2023-02-14T00:41:43.297Z,98911.75
2023-02-14T00:45:43.859Z,98915.63
2023-02-14T00:49:44.206Z,98905.94
2023-02-14T00:53:45.604Z,98913.13
2023-02-14T00:57:48.724Z,98920.13
2023-02-14T01:01:51.331Z,98917.81
2023-02-14T01:05:53.341Z,98917.66
2023-02-14T01:09:53.882Z,98927.22
2023-02-14T01:14:00.464Z,98928.88
2023-02-14T01:18:02.937Z,98922.00
2023-02-14T01:22:03.587Z,98921.16
2023-02-14T01:26:08.478Z,98920.47
2023-02-14T01:30:14.166Z,98907.06
2023-02-14T01:34:14.386Z,98892.72
2023-02-14T01:38:14.890Z,98897.38
2023-02-14T01:42:15.332Z,98891.03
2023-02-14T01:46:18.933Z,98899.91
2023-02-14T01:50:25.773Z,98887.88
2023-02-14T01:54:30.668Z,98891.59
2023-02-14T01:58:36.709Z,98902.94
2023-02-14T02:02:39.809Z,98896.81
2023-02-14T02:06:46.282Z,98891.81
2023-02-14T02:10:46.651Z,98900.06
2023-02-14T02:14:48.058Z,98885.97
2023-02-14T02:19:12.799Z,98888.19
2023-02-14T02:24:00.226Z,98889.72
2023-02-14T02:28:40.345Z,98885.97
2023-02-14T02:33:15.771Z,98854.28
2023-02-14T02:37:41.776Z,98880.75
2023-02-14T02:41:58.013Z,98879.81
2023-02-14T02:46:17.489Z,98883.53
2023-02-14T02:50:40.882Z,98878.31
2023-02-14T02:54:52.224Z,98889.06
2023-02-14T02:58:59.856Z,98882.44
2023-02-14T03:03:14.886Z,98884.44
2023-02-14T03:07:29.159Z,98885.66
2023-02-14T03:11:33.085Z,98893.22
2023-02-14T03:15:50.141Z,98887.97
2023-02-14T03:20:18.186Z,98887.41
2023-02-14T03:24:31.034Z,98882.47
2023-02-14T03:28:45.671Z,98860.94
2023-02-14T03:32:54.686Z,98884.78
2023-02-14T03:37:02.171Z,98884.91
2023-02-14T03:41:08.545Z,98877.13
2023-02-14T03:45:25.916Z,98881.69
2023-02-14T03:49:32.903Z,98876.25
2023-02-14T03:53:39.605Z,98878.28
2023-02-14T03:57:52.645Z,98873.38
2023-02-14T04:02:02.781Z,98880.16
2023-02-14T04:06:04.229Z,98891.09
2023-02-14T04:10:04.575Z,98884.44
2023-02-14T04:14:05.165Z,98885.78
2023-02-14T04:18:20.651Z,98883.03
2023-02-14T04:22:22.109Z,98888.81
2023-02-14T04:26:22.368Z,98885.25
2023-02-14T04:30:23.958Z,98881.69
2023-02-14T04:34:27.364Z,98884.56
2023-02-14T04:38:27.864Z,98884.84
2023-02-14T04:42:28.650Z,98884.56
2023-02-14T04:46:28.878Z,98874.44
2023-02-14T04:50:32.125Z,98872.41
2023-02-14T04:54:35.309Z,98870.03
2023-02-14T04:58:36.052Z,98869.19
2023-02-14T05:02:36.387Z,98860.63
2023-02-14T05:06:39.692Z,98863.13
2023-02-14T05:10:40.025Z,98864.75
2023-02-14T05:14:40.313Z,98871.34
2023-02-14T05:18:40.701Z,98867.09
2023-02-14T05:22:43.679Z,98864.06
2023-02-14T05:26:44.008Z,98862.19
2023-02-14T05:30:44.765Z,98867.66
2023-02-14T05:34:45.171Z,98861.53
2023-02-14T05:38:48.821Z,98871.09
2023-02-14T05:42:49.331Z,98868.19
2023-02-14T05:46:49.729Z,98864.16
2023-02-14T05:50:50.171Z,98858.59
2023-02-14T05:54:53.598Z,98848.97
2023-02-14T05:58:54.240Z,98855.50
2023-02-14T06:02:54.838Z,98855.53
2023-02-14T06:06:55.280Z,98857.50
2023-02-14T06:10:58.881Z,98858.44
2023-02-14T06:14:59.490Z,98862.94
2023-02-14T06:19:00.073Z,98874.53
2023-02-14T06:23:01.145Z,98881.00
2023-02-14T06:27:05.321Z,98867.53
2023-02-14T06:31:05.912Z,98866.66
2023-02-14T06:35:06.833Z,98871.34
2023-02-14T06:39:11.696Z,98867.66
2023-02-14T06:43:14.933Z,98865.59
2023-02-14T06:47:15.431Z,98866.97
2023-02-14T06:51:16.585Z,98865.78
2023-02-14T06:55:16.925Z,98861.03
2023-02-14T06:59:20.082Z,98869.41
2023-02-14T07:03:20.810Z,98868.63
2023-02-14T07:07:21.154Z,98861.38
2023-02-14T07:11:21.799Z,98859.63
2023-02-14T07:15:24.894Z,98856.69
2023-02-14T07:19:25.375Z,98861.47
2023-02-14T07:23:26.875Z,98845.28
2023-02-14T07:27:27.649Z,98840.06
2023-02-14T07:31:30.970Z,98843.44
2023-02-14T07:35:31.469Z,98843.66
2023-02-14T07:39:32.232Z,98833.84
2023-02-14T07:43:34.657Z,98837.47
2023-02-14T07:47:37.664Z,98836.53
2023-02-14T07:51:38.158Z,98830.34
2023-02-14T07:55:39.740Z,98826.50
2023-02-14T07:59:40.504Z,98831.13
2023-02-14T08:03:49.623Z,98835.19
2023-02-14T08:07:50.572Z,98835.47
2023-02-14T08:12:03.603Z,98829.56
2023-02-14T08:16:11.833Z,98824.16
2023-02-14T08:20:16.522Z,98838.06
2023-02-14T08:24:17.328Z,98832.16
2023-02-14T08:28:18.324Z,98828.88
2023-02-14T08:32:21.204Z,98841.91
2023-02-14T08:36:24.464Z,98837.13
2023-02-14T08:40:25.182Z,98837.88
2023-02-14T08:44:25.737Z,98834.13
2023-02-14T08:48:27.105Z,98832.38
2023-02-14T08:52:30.296Z,98810.69
2023-02-14T08:56:30.659Z,98831.78
2023-02-14T09:00:31.341Z,98837.25
2023-02-14T09:04:31.901Z,98838.94
2023-02-14T09:08:35.176Z,98835.69
2023-02-14T09:12:35.590Z,98827.47
2023-02-14T09:16:36.196Z,98829.22
2023-02-14T09:20:36.831Z,98834.13
2023-02-14T09:24:42.497Z,98830.94
2023-02-14T09:28:43.321Z,98834.34
2023-02-14T09:32:44.028Z,98832.09
2023-02-14T09:36:44.606Z,98828.47
2023-02-14T09:40:51.343Z,98831.09
2023-02-14T09:44:58.857Z,98820.97
2023-02-14T09:49:01.386Z,98824.19
2023-02-14T09:53:06.237Z,98823.13
2023-02-14T09:57:21.475Z,98823.47
2023-02-14T10:01:28.534Z,98821.84
2023-02-14T10:05:40.151Z,98830.41
2023-02-14T10:10:03.137Z,98828.44
2023-02-14T10:14:17.694Z,98825.72
2023-02-14T10:18:24.788Z,98822.75
2023-02-14T10:22:34.733Z,98835.72
2023-02-14T10:26:41.510Z,98825.97
2023-02-14T10:31:01.657Z,98825.00
2023-02-14T10:35:09.302Z,98787.94
2023-02-14T10:39:35.666Z,98817.41
2023-02-14T10:43:51.389Z,98822.13
2023-02-14T10:48:06.450Z,98800.19
2023-02-14T10:52:21.003Z,98804.41
2023-02-14T10:56:29.477Z,98806.44
2023-02-14T11:00:36.436Z,98803.00
2023-02-14T11:04:39.760Z,98804.00
2023-02-14T11:08:43.465Z,98789.25
2023-02-14T11:12:44.849Z,98786.47
2023-02-14T11:16:45.317Z,98790.69
2023-02-14T11:21:05.183Z,98781.13
2023-02-14T11:25:21.601Z,98780.31
2023-02-14T11:29:31.908Z,98788.44
2023-02-14T11:33:41.241Z,98776.66
2023-02-14T11:37:53.691Z,98773.78
2023-02-14T11:41:56.940Z,98774.66
2023-02-14T11:46:10.842Z,98773.97
2023-02-14T11:50:27.042Z,98769.34
2023-02-14T11:54:37.856Z,98762.88
2023-02-14T11:58:43.666Z,98768.47
2023-02-14T12:02:49.111Z,98757.81
2023-02-14T12:06:50.576Z,98749.44
2023-02-14T12:11:06.008Z,98733.63
2023-02-14T12:15:34.498Z,98741.25
2023-02-14T12:19:45.324Z,98732.94
2023-02-14T12:23:56.299Z,98733.91
2023-02-14T12:28:07.892Z,98730.94
2023-02-14T12:32:28.517Z,98725.22
2023-02-14T12:36:50.504Z,98714.81
2023-02-14T12:41:08.425Z,98711.97
2023-02-14T12:45:23.425Z,98716.78
2023-02-14T12:50:02.457Z,98700.63
2023-02-14T12:54:30.861Z,98706.53
2023-02-14T12:58:51.058Z,98692.38
2023-02-14T13:03:31.040Z,98686.16
2023-02-14T13:07:55.794Z,98654.19
2023-02-14T13:12:11.263Z,98676.94
2023-02-14T13:16:25.834Z,98669.84
2023-02-14T13:20:52.495Z,98670.97
2023-02-14T13:24:59.921Z,98663.03
2023-02-14T13:29:06.714Z,98658.03
2023-02-14T13:33:17.260Z,98648.78
2023-02-14T13:37:24.330Z,98657.91
2023-02-14T13:41:26.915Z,98656.00
2023-02-14T13:45:58.557Z,98653.09
2023-02-14T13:50:02.407Z,98641.38
2023-02-14T13:54:05.894Z,98653.53
2023-02-14T13:58:09.739Z,98651.19
2023-02-14T14:02:35.690Z,98651.84
2023-02-14T14:07:21.158Z,98622.53
2023-02-14T14:12:03.199Z,98647.25
2023-02-14T14:16:31.175Z,98646.03
2023-02-14T14:20:52.688Z,98645.56
2023-02-14T14:25:00.912Z,98645.59
2023-02-14T14:29:04.388Z,98636.69
2023-02-14T14:33:17.531Z,98624.38
2023-02-14T14:37:22.227Z,98631.47
2023-02-14T14:41:23.684Z,98632.13
2023-02-14T14:45:31.981Z,98617.97
2023-02-14T14:49:36.543Z,98626.84
2023-02-14T14:53:47.345Z,98627.50
2023-02-14T14:57:54.749Z,98621.75
2023-02-14T15:01:58.604Z,98609.06
2023-02-14T15:06:11.454Z,98612.34
2023-02-14T15:10:30.391Z,98608.41
2023-02-14T15:14:36.743Z,98606.13
2023-02-14T15:18:40.692Z,98609.38
2023-02-14T15:22:47.567Z,98600.81
2023-02-14T15:26:53.459Z,98602.75
2023-02-14T15:31:02.101Z,98604.44
2023-02-14T15:35:09.978Z,98597.13
2023-02-14T15:39:17.025Z,98603.66
2023-02-14T15:43:25.206Z,98610.59
2023-02-14T15:47:27.871Z,98610.16
2023-02-14T15:51:36.572Z,98597.00
2023-02-14T15:55:39.443Z,98600.63
2023-02-14T15:59:45.440Z,98592.25
2023-02-14T16:03:57.509Z,98599.97
2023-02-14T16:08:07.991Z,98598.00
2023-02-14T16:12:35.253Z,98596.16
2023-02-14T16:17:06.393Z,98595.63
2023-02-14T16:21:25.751Z,98599.63
2023-02-14T16:25:28.978Z,98592.56
2023-02-14T16:29:30.743Z,98594.00
2023-02-14T16:33:37.340Z,98600.03
2023-02-14T16:37:38.417Z,98603.63
2023-02-14T16:41:48.148Z,98601.72
2023-02-14T16:45:49.876Z,98601.91
2023-02-14T16:49:50.795Z,98604.91
2023-02-14T16:53:52.003Z,98614.78
2023-02-14T16:57:56.534Z,98611.94
2023-02-14T17:01:57.335Z,98605.19
2023-02-14T17:06:01.482Z,98612.53
2023-02-14T17:10:08.818Z,98613.75
2023-02-14T17:14:15.523Z,98621.50
2023-02-14T17:18:20.761Z,98612.22
2023-02-14T17:22:21.327Z,98620.16
2023-02-14T17:26:21.897Z,98620.50
2023-02-14T17:30:25.922Z,98623.41
2023-02-14T17:34:26.638Z,98623.22
2023-02-14T17:38:27.272Z,98619.34
2023-02-14T17:42:29.183Z,98626.03
2023-02-14T17:46:34.364Z,98622.28
2023-02-14T17:50:34.765Z,98620.28
2023-02-14T17:54:40.002Z,98612.94
2023-02-14T17:58:41.969Z,98611.81
2023-02-14T18:02:46.408Z,98613.22
2023-02-14T18:06:47.357Z,98618.69
2023-02-14T18:10:48.158Z,98611.81
2023-02-14T18:14:48.593Z,98606.69
2023-02-14T18:18:52.106Z,98618.50
2023-02-14T18:22:52.494Z,98611.44
2023-02-14T18:26:53.733Z,98582.50
2023-02-14T18:30:57.473Z,98600.13
2023-02-14T18:35:02.295Z,98598.25
2023-02-14T18:39:03.591Z,98601.69
2023-02-14T18:43:06.887Z,98608.28
2023-02-14T18:47:08.148Z,98601.56
2023-02-14T18:51:16.126Z,98608.00
2023-02-14T18:55:16.926Z,98586.75
2023-02-14T18:59:20.809Z,98595.31
2023-02-14T19:03:25.169Z,98596.56
2023-02-14T19:07:30.043Z,98590.06
2023-02-14T19:11:34.345Z,98593.38
2023-02-14T19:15:34.720Z,98580.06
2023-02-14T19:19:35.021Z,98587.75
2023-02-14T19:23:38.854Z,98582.97
2023-02-14T19:27:40.040Z,98573.97
2023-02-14T19:31:44.135Z,98590.72
2023-02-14T19:35:45.348Z,98571.00
2023-02-14T19:39:48.869Z,98581.06
2023-02-14T19:43:51.417Z,98584.00
2023-02-14T19:47:52.030Z,98581.34
2023-02-14T19:51:54.435Z,98573.97
2023-02-14T19:55:57.667Z,98585.78
2023-02-14T19:59:58.167Z,98582.69
2023-02-14T20:03:58.588Z,98569.00
2023-02-14T20:07:59.183Z,98577.22
2023-02-14T20:12:04.288Z,98579.94
2023-02-14T20:16:04.567Z,98580.19
2023-02-14T20:20:05.055Z,98579.13
2023-02-14T20:24:07.652Z,98573.88
2023-02-14T20:28:11.357Z,98572.88
2023-02-14T20:32:12.336Z,98587.09
2023-02-14T20:36:14.500Z,98549.09
2023-02-14T20:40:16.307Z,98571.44
2023-02-14T20:44:22.592Z,98571.06
2023-02-14T20:48:23.461Z,98569.72
2023-02-14T20:52:24.582Z,98559.69
2023-02-14T20:56:26.588Z,98555.03
2023-02-14T21:00:30.154Z,98550.63
2023-02-14T21:04:34.455Z,98546.25
2023-02-14T21:08:34.884Z,98544.25
2023-02-14T21:12:35.405Z,98535.63
2023-02-14T21:16:39.093Z,98544.63
2023-02-14T21:20:40.897Z,98537.94
2023-02-14T21:24:41.274Z,98529.88
2023-02-14T21:28:41.701Z,98529.81
2023-02-14T21:32:45.279Z,98515.16
2023-02-14T21:36:46.072Z,98517.75
2023-02-14T21:40:47.968Z,98516.00
2023-02-14T21:45:00.719Z,98510.50
2023-02-14T21:49:19.852Z,98505.09
2023-02-14T21:53:20.393Z,98489.06
2023-02-14T21:57:21.172Z,98500.59
2023-02-14T22:01:24.643Z,98497.50
2023-02-14T22:05:28.887Z,98499.19
2023-02-14T22:09:29.347Z,98495.25
2023-02-14T22:13:30.147Z,98502.25
2023-02-14T22:17:30.915Z,98503.22
2023-02-14T22:21:37.801Z,98500.81
2023-02-14T22:25:38.201Z,98500.03
2023-02-14T22:29:39.071Z,98502.53
2023-02-14T22:33:39.921Z,98496.03
2023-02-14T22:37:43.119Z,98513.81
2023-02-14T22:41:43.502Z,98505.63
2023-02-14T22:45:44.261Z,98495.59
2023-02-14T22:49:44.736Z,98499.94
2023-02-14T22:53:48.425Z,98495.34
2023-02-14T22:57:48.871Z,98497.31
2023-02-14T23:01:51.177Z,98478.09
2023-02-14T23:05:51.454Z,98487.91
2023-02-14T23:09:55.343Z,98491.47
2023-02-14T23:14:08.680Z,98488.19
2023-02-14T23:18:21.397Z,98484.31
2023-02-14T23:22:24.527Z,98493.38
2023-02-14T23:26:27.656Z,98483.59
2023-02-14T23:30:28.106Z,98485.66
2023-02-14T23:34:29.806Z,98479.63
2023-02-14T23:38:30.034Z,98473.47
2023-02-14T23:42:33.168Z,98475.69
2023-02-14T23:46:33.669Z,98460.56
2023-02-14T23:50:34.124Z,98440.16
2023-02-14T23:54:35.377Z,98451.28
2023-02-14T23:58:38.398Z,98445.69
